Terminal Aerodrome Forecast
Issued by NWS Pocatello, ID

Home | Current Version | Previous Version | Text Only | Print | Product List | Glossary On
Versions: 1 2 3 4 5 6 7 8 9 10 11 12 13 14 15 16 17 18 19 20 21 22 23
000
FTUS45 KPIH 280800 AAC
TAFPIH
TAF AMD
KPIH 280801Z 2808/2906 19015G23KT 5SM -SN BKN035 OVC040
      TEMPO 2808/2810 4SM -SN OVC025
     FM281000 21017KT 2SM -SN SCT008 OVC015
     FM281300 22018KT 1SM -SN OVC008
     FM281700 23017G27KT 1SM -SN BLSN SCT008 OVC015
     FM290100 21012KT P6SM BKN008 OVC030=

USA.gov is the U.S. government's official web portal to all federal, state and local government web resources and services.